createdAt,value
2023-01-22T00:01:18.738Z,6.32
2023-01-22T00:03:49.127Z,6.82
2023-01-22T00:06:18.553Z,7.30
2023-01-22T00:08:46.634Z,9.32
2023-01-22T00:11:15.352Z,6.97
2023-01-22T00:13:43.468Z,6.35
2023-01-22T00:16:13.624Z,5.90
2023-01-22T00:18:42.148Z,5.72
2023-01-22T00:21:12.100Z,7.68
2023-01-22T00:23:42.057Z,9.75
2023-01-22T00:26:15.417Z,7.05
2023-01-22T00:28:46.015Z,7.43
2023-01-22T00:31:15.903Z,6.13
2023-01-22T00:33:45.203Z,6.32
2023-01-22T00:36:16.320Z,8.35
2023-01-22T00:38:46.412Z,8.50
2023-01-22T00:41:16.145Z,7.65
2023-01-22T00:43:44.112Z,7.57
2023-01-22T00:46:15.876Z,6.13
2023-01-22T00:48:45.230Z,7.05
2023-01-22T00:51:15.488Z,6.75
2023-01-22T00:53:45.067Z,7.25
2023-01-22T00:56:15.829Z,6.45
2023-01-22T00:58:44.526Z,6.47
2023-01-22T01:01:15.432Z,5.45
2023-01-22T01:03:44.144Z,6.18
2023-01-22T01:06:16.576Z,6.78
2023-01-22T01:08:49.533Z,6.32
2023-01-22T01:11:21.823Z,6.05
2023-01-22T01:13:52.093Z,8.35
2023-01-22T01:16:26.467Z,6.15
2023-01-22T01:18:54.642Z,6.10
2023-01-22T01:21:22.580Z,6.95
2023-01-22T01:23:51.966Z,5.63
2023-01-22T01:26:20.167Z,7.20
2023-01-22T01:28:48.050Z,5.90
2023-01-22T01:31:18.193Z,6.13
2023-01-22T01:33:47.116Z,5.30
2023-01-22T01:36:30.757Z,6.25
2023-01-22T01:39:05.411Z,6.75
2023-01-22T01:41:33.299Z,6.50
2023-01-22T01:44:11.077Z,4.60
2023-01-22T01:46:45.465Z,6.55
2023-01-22T01:49:27.368Z,6.43
2023-01-22T01:52:00.413Z,6.32
2023-01-22T01:54:31.787Z,5.28
2023-01-22T01:57:08.703Z,7.00
2023-01-22T01:59:38.830Z,6.13
2023-01-22T02:02:07.842Z,5.68
2023-01-22T02:04:36.408Z,6.75
2023-01-22T02:07:05.514Z,6.03
2023-01-22T02:09:36.301Z,6.15
2023-01-22T02:12:05.394Z,6.55
2023-01-22T02:14:38.233Z,5.55
2023-01-22T02:17:08.978Z,8.18
2023-01-22T02:19:36.882Z,5.63
2023-01-22T02:22:13.427Z,6.35
2023-01-22T02:24:41.465Z,6.15
2023-01-22T02:27:10.134Z,7.97
2023-01-22T02:29:38.760Z,7.22
2023-01-22T02:32:07.394Z,7.20
2023-01-22T02:34:36.918Z,6.20
2023-01-22T02:37:06.761Z,5.70
2023-01-22T02:39:34.794Z,6.47
2023-01-22T02:42:06.931Z,6.43
2023-01-22T02:44:35.015Z,6.75
2023-01-22T02:47:02.965Z,6.10
2023-01-22T02:49:30.932Z,5.97
2023-01-22T02:51:58.940Z,5.05
2023-01-22T02:54:28.404Z,5.75
2023-01-22T02:56:57.396Z,6.10
2023-01-22T02:59:25.708Z,5.38
2023-01-22T03:01:53.647Z,5.75
2023-01-22T03:04:21.629Z,6.78
2023-01-22T03:06:49.576Z,6.13
2023-01-22T03:09:18.743Z,6.40
2023-01-22T03:11:48.585Z,5.90
2023-01-22T03:14:41.345Z,5.80
2023-01-22T03:17:27.971Z,8.18
2023-01-22T03:20:14.134Z,4.75
2023-01-22T03:22:42.052Z,5.15
2023-01-22T03:25:10.326Z,6.30
2023-01-22T03:27:59.873Z,6.00
2023-01-22T03:30:27.823Z,5.68
2023-01-22T03:32:56.745Z,7.18
2023-01-22T03:35:25.149Z,5.45
2023-01-22T03:38:05.377Z,5.80
2023-01-22T03:40:33.222Z,5.13
2023-01-22T03:43:03.008Z,6.05
2023-01-22T03:45:33.914Z,8.43
2023-01-22T03:48:02.887Z,5.53
2023-01-22T03:50:37.052Z,7.63
2023-01-22T03:53:05.032Z,5.82
2023-01-22T03:55:34.124Z,6.88
2023-01-22T03:58:04.082Z,6.40
2023-01-22T04:00:32.024Z,7.82
2023-01-22T04:03:00.614Z,10.75
2023-01-22T04:05:33.424Z,6.80
2023-01-22T04:08:01.492Z,7.03
2023-01-22T04:10:31.772Z,5.93
2023-01-22T04:13:04.009Z,8.43
2023-01-22T04:15:31.943Z,8.43
2023-01-22T04:18:02.656Z,8.98
2023-01-22T04:20:56.749Z,7.18
2023-01-22T04:23:42.834Z,7.50
2023-01-22T04:26:11.665Z,8.63
2023-01-22T04:28:40.996Z,6.70
2023-01-22T04:31:10.166Z,7.22
2023-01-22T04:33:44.645Z,8.23
2023-01-22T04:36:28.937Z,5.38
2023-01-22T04:38:57.180Z,8.05
2023-01-22T04:41:25.157Z,6.30
2023-01-22T04:43:55.252Z,5.90
2023-01-22T04:46:25.792Z,8.95
2023-01-22T04:48:54.414Z,6.88
2023-01-22T04:51:22.442Z,9.48
2023-01-22T04:53:50.486Z,8.32
2023-01-22T04:56:18.913Z,7.10
2023-01-22T04:58:47.548Z,7.55
2023-01-22T05:01:17.698Z,8.10
2023-01-22T05:03:46.229Z,9.50
2023-01-22T05:06:14.340Z,9.68
2023-01-22T05:08:42.259Z,8.05
2023-01-22T05:11:11.549Z,9.52
2023-01-22T05:13:46.564Z,9.35
2023-01-22T05:16:14.537Z,8.80
2023-01-22T05:18:43.959Z,9.85
2023-01-22T05:21:11.956Z,8.55
2023-01-22T05:23:39.905Z,10.93
2023-01-22T05:26:08.494Z,9.43
2023-01-22T05:28:43.341Z,7.95
2023-01-22T05:31:31.029Z,7.05
2023-01-22T05:34:06.482Z,7.47
2023-01-22T05:36:34.739Z,8.73
2023-01-22T05:39:08.965Z,7.47
2023-01-22T05:41:37.537Z,10.10
2023-01-22T05:44:07.514Z,8.95
2023-01-22T05:46:35.491Z,7.63
2023-01-22T05:49:27.641Z,7.05
2023-01-22T05:51:57.834Z,6.38
2023-01-22T05:54:25.830Z,7.53
2023-01-22T05:56:53.923Z,6.30
2023-01-22T05:59:21.889Z,7.70
2023-01-22T06:01:56.311Z,7.10
2023-01-22T06:04:24.559Z,6.45
2023-01-22T06:06:54.114Z,8.18
2023-01-22T06:09:24.878Z,7.97
2023-01-22T06:11:53.235Z,7.93
2023-01-22T06:14:21.499Z,7.78
2023-01-22T06:16:50.224Z,10.18
2023-01-22T06:19:38.364Z,9.02
2023-01-22T06:22:09.128Z,9.38
2023-01-22T06:24:46.878Z,9.43
2023-01-22T06:27:16.655Z,9.43
2023-01-22T06:29:55.047Z,9.38
2023-01-22T06:32:23.005Z,13.70
2023-01-22T06:34:52.818Z,10.93
2023-01-22T06:37:22.893Z,9.38
2023-01-22T06:39:51.334Z,11.10
2023-01-22T06:42:33.091Z,10.52
2023-01-22T06:45:01.119Z,9.50
2023-01-22T06:47:31.479Z,8.00
2023-01-22T06:49:59.787Z,8.32
2023-01-22T06:52:29.102Z,8.85
2023-01-22T06:54:57.591Z,7.13
2023-01-22T06:57:26.686Z,8.65
2023-01-22T06:59:54.580Z,10.05
2023-01-22T07:02:22.869Z,8.27
2023-01-22T07:04:50.718Z,9.90
2023-01-22T07:07:18.623Z,10.43
2023-01-22T07:09:47.870Z,12.45
2023-01-22T07:12:15.788Z,12.80
2023-01-22T07:14:43.802Z,13.73
2023-01-22T07:17:11.689Z,16.38
2023-01-22T07:19:39.543Z,13.25
2023-01-22T07:22:07.690Z,14.20
2023-01-22T07:24:35.680Z,13.52
2023-01-22T07:27:05.215Z,14.50
2023-01-22T07:29:33.086Z,12.82
2023-01-22T07:32:01.063Z,12.23
2023-01-22T07:34:28.998Z,15.65
2023-01-22T07:36:56.864Z,16.98
2023-01-22T07:39:25.040Z,15.82
2023-01-22T07:41:52.891Z,17.02
2023-01-22T07:44:22.477Z,16.98
2023-01-22T07:46:50.616Z,15.43
2023-01-22T07:49:18.511Z,17.13
2023-01-22T07:51:46.423Z,18.55
2023-01-22T07:54:15.402Z,14.23
2023-01-22T07:56:44.778Z,16.20
2023-01-22T07:59:12.945Z,15.32
2023-01-22T08:01:42.180Z,17.23
2023-01-22T08:04:10.179Z,16.73
2023-01-22T08:06:38.037Z,18.02
2023-01-22T08:09:07.079Z,15.90
2023-01-22T08:11:34.922Z,17.02
2023-01-22T08:14:02.806Z,19.35
2023-01-22T08:16:30.758Z,17.05
2023-01-22T08:19:00.329Z,17.73
2023-01-22T08:21:28.166Z,17.58
2023-01-22T08:23:56.380Z,15.07
2023-01-22T08:26:24.325Z,24.02
2023-01-22T08:28:52.178Z,18.25
2023-01-22T08:31:27.921Z,19.60
2023-01-22T08:33:56.582Z,17.95
2023-01-22T08:36:26.162Z,21.88
2023-01-22T08:38:54.090Z,18.98
2023-01-22T08:41:22.655Z,19.90
2023-01-22T08:43:52.130Z,18.98
2023-01-22T08:46:20.820Z,20.20
2023-01-22T08:48:50.161Z,20.25
2023-01-22T08:51:18.220Z,17.08
2023-01-22T08:53:47.462Z,21.80
2023-01-22T08:56:15.386Z,27.70
2023-01-22T08:58:43.291Z,33.05
2023-01-22T09:01:17.477Z,37.17
2023-01-22T09:03:45.671Z,30.67
2023-01-22T09:06:13.982Z,28.90
2023-01-22T09:08:42.258Z,30.05
2023-01-22T09:11:11.616Z,25.02
2023-01-22T09:13:40.000Z,18.02
2023-01-22T09:16:10.775Z,19.98
2023-01-22T09:18:38.973Z,19.08
2023-01-22T09:21:08.123Z,19.90
2023-01-22T09:23:36.070Z,21.10
2023-01-22T09:26:04.220Z,16.77
2023-01-22T09:28:35.969Z,16.40
2023-01-22T09:31:05.111Z,20.48
2023-01-22T09:33:33.042Z,19.25
2023-01-22T09:36:09.877Z,18.30
2023-01-22T09:38:38.363Z,18.35
2023-01-22T09:41:19.826Z,17.05
2023-01-22T09:43:55.172Z,22.23
2023-01-22T09:46:31.232Z,23.23
2023-01-22T09:49:08.306Z,19.73
2023-01-22T09:51:36.647Z,21.83
2023-01-22T09:54:07.565Z,21.35
2023-01-22T09:56:42.478Z,24.00
2023-01-22T09:59:19.629Z,20.42
2023-01-22T10:01:52.184Z,16.13
2023-01-22T10:04:35.880Z,24.63
2023-01-22T10:07:10.962Z,19.85
2023-01-22T10:09:46.126Z,19.13
2023-01-22T10:12:15.108Z,21.33
2023-01-22T10:14:45.701Z,26.75
2023-01-22T10:17:22.564Z,19.13
2023-01-22T10:19:56.659Z,18.17
2023-01-22T10:22:27.200Z,24.77
2023-01-22T10:24:57.063Z,22.83
2023-01-22T10:27:38.879Z,17.65
2023-01-22T10:30:21.777Z,21.17
2023-01-22T10:33:00.652Z,25.17
2023-01-22T10:35:31.807Z,27.63
2023-01-22T10:38:01.094Z,22.20
2023-01-22T10:40:37.782Z,21.17
2023-01-22T10:43:11.895Z,24.10
2023-01-22T10:45:54.508Z,20.67
2023-01-22T10:48:23.741Z,22.67
2023-01-22T10:51:12.143Z,22.42
2023-01-22T10:53:48.758Z,20.17
2023-01-22T10:56:32.261Z,21.08
2023-01-22T10:59:05.234Z,20.27
2023-01-22T11:01:38.205Z,19.95
2023-01-22T11:04:22.965Z,18.95
2023-01-22T11:06:57.031Z,21.10
2023-01-22T11:09:34.954Z,18.70
2023-01-22T11:12:13.101Z,22.42
2023-01-22T11:14:41.131Z,26.13
2023-01-22T11:17:21.062Z,24.50
2023-01-22T11:19:58.079Z,25.75
2023-01-22T11:22:34.512Z,20.30
2023-01-22T11:25:03.427Z,18.88
2023-01-22T11:28:13.017Z,20.23
2023-01-22T11:31:21.544Z,19.77
2023-01-22T11:34:40.123Z,20.30
2023-01-22T11:37:14.748Z,19.52
2023-01-22T11:40:05.382Z,18.63
2023-01-22T11:42:57.778Z,22.63
2023-01-22T11:45:47.609Z,22.08
2023-01-22T11:48:33.937Z,22.05
2023-01-22T11:51:18.718Z,20.35
2023-01-22T11:54:20.697Z,20.38
2023-01-22T11:57:18.032Z,23.10
2023-01-22T12:00:20.201Z,18.33
2023-01-22T12:03:20.057Z,17.38
2023-01-22T12:06:02.296Z,20.08
2023-01-22T12:08:51.036Z,19.52
2023-01-22T12:11:45.299Z,22.63
2023-01-22T12:14:36.336Z,22.17
2023-01-22T12:17:23.874Z,20.25
2023-01-22T12:20:18.169Z,21.27
2023-01-22T12:22:55.973Z,20.30
2023-01-22T12:25:37.876Z,21.45
2023-01-22T12:28:16.096Z,22.92
2023-01-22T12:30:55.342Z,20.45
2023-01-22T12:33:29.617Z,21.15
2023-01-22T12:36:02.148Z,20.73
2023-01-22T12:38:43.655Z,22.08
2023-01-22T12:41:37.748Z,20.15
2023-01-22T12:44:24.297Z,20.67
2023-01-22T12:47:06.582Z,18.92
2023-01-22T12:49:46.204Z,20.70
2023-01-22T12:52:34.471Z,19.80
2023-01-22T12:55:22.048Z,23.63
2023-01-22T12:57:51.469Z,18.98
2023-01-22T13:00:34.488Z,19.00
2023-01-22T13:03:04.945Z,20.45
2023-01-22T13:05:45.516Z,19.38
2023-01-22T13:08:44.499Z,19.25
2023-01-22T13:11:15.692Z,19.95
2023-01-22T13:13:51.574Z,20.65
2023-01-22T13:16:27.560Z,18.30
2023-01-22T13:19:00.603Z,19.23
2023-01-22T13:21:32.266Z,17.92
2023-01-22T13:24:04.246Z,19.60
2023-01-22T13:26:36.502Z,21.45
2023-01-22T13:29:19.487Z,18.20
2023-01-22T13:31:54.025Z,20.20
2023-01-22T13:34:22.443Z,19.50
2023-01-22T13:36:52.053Z,18.98
2023-01-22T13:39:25.928Z,18.80
2023-01-22T13:41:56.189Z,19.48
2023-01-22T13:44:31.723Z,21.42
2023-01-22T13:47:00.398Z,21.25
2023-01-22T13:49:31.266Z,23.35
2023-01-22T13:52:06.780Z,20.67
2023-01-22T13:54:42.908Z,21.30
2023-01-22T13:57:14.999Z,23.85
2023-01-22T13:59:54.802Z,28.80
2023-01-22T14:02:25.289Z,21.73
2023-01-22T14:04:53.564Z,23.20
2023-01-22T14:07:27.871Z,20.20
2023-01-22T14:09:57.239Z,21.75
2023-01-22T14:12:30.194Z,25.23
2023-01-22T14:14:59.415Z,18.60
2023-01-22T14:17:30.700Z,23.55
2023-01-22T14:19:59.412Z,24.65
2023-01-22T14:22:28.031Z,25.35
2023-01-22T14:24:56.509Z,21.77
2023-01-22T14:27:30.236Z,22.33
2023-01-22T14:29:59.819Z,21.58
2023-01-22T14:32:27.801Z,23.42
2023-01-22T14:34:55.728Z,18.52
2023-01-22T14:37:23.616Z,21.45
2023-01-22T14:39:51.464Z,22.85
2023-01-22T14:42:19.365Z,18.48
2023-01-22T14:44:47.203Z,21.90
2023-01-22T14:47:16.543Z,24.40
2023-01-22T14:49:44.397Z,20.10
2023-01-22T14:52:12.291Z,26.55
2023-01-22T14:54:40.291Z,31.88
2023-01-22T14:57:08.453Z,29.52
2023-01-22T14:59:36.652Z,28.38
2023-01-22T15:02:05.020Z,30.15
2023-01-22T15:04:34.211Z,53.58
2023-01-22T15:07:02.059Z,37.53
2023-01-22T15:09:29.925Z,48.90
2023-01-22T15:11:58.622Z,68.78
2023-01-22T15:14:27.072Z,62.55
2023-01-22T15:16:54.923Z,89.38
2023-01-22T15:19:22.875Z,63.38
2023-01-22T15:21:52.059Z,42.13
2023-01-22T15:24:19.973Z,79.93
2023-01-22T15:26:47.935Z,55.10
2023-01-22T15:29:15.956Z,60.55
2023-01-22T15:31:43.950Z,84.43
2023-01-22T15:34:11.875Z,77.88
2023-01-22T15:36:40.547Z,95.82
2023-01-22T15:39:10.206Z,75.32
2023-01-22T15:41:39.360Z,24.13
2023-01-22T15:44:07.829Z,24.38
2023-01-22T15:46:38.889Z,23.95
2023-01-22T15:49:09.032Z,23.77
2023-01-22T15:51:37.597Z,29.55
2023-01-22T15:54:09.328Z,57.22
2023-01-22T15:56:39.029Z,30.90
2023-01-22T15:59:07.645Z,42.80
2023-01-22T16:01:36.204Z,57.78
2023-01-22T16:04:04.984Z,44.47
2023-01-22T16:06:34.954Z,49.65
2023-01-22T16:09:07.291Z,76.60
2023-01-22T16:11:37.466Z,88.18
2023-01-22T16:14:05.703Z,104.88
2023-01-22T16:16:36.995Z,76.63
2023-01-22T16:19:08.825Z,75.03
2023-01-22T16:21:37.112Z,77.05
2023-01-22T16:24:06.211Z,67.80
2023-01-22T16:26:36.676Z,98.55
2023-01-22T16:29:06.983Z,76.65
2023-01-22T16:31:37.381Z,69.60
2023-01-22T16:34:12.059Z,101.60
2023-01-22T16:36:41.944Z,70.00
2023-01-22T16:39:17.499Z,84.93
2023-01-22T16:41:49.379Z,91.15
2023-01-22T16:44:20.893Z,71.65
2023-01-22T16:46:52.303Z,108.70
2023-01-22T16:49:23.199Z,102.38
2023-01-22T16:51:54.104Z,118.93
2023-01-22T16:54:27.886Z,76.03
2023-01-22T16:56:59.007Z,96.00
2023-01-22T16:59:27.992Z,83.20
2023-01-22T17:01:57.865Z,80.93
2023-01-22T17:04:26.356Z,72.97
2023-01-22T17:06:57.040Z,125.40
2023-01-22T17:09:28.150Z,96.15
2023-01-22T17:12:00.158Z,112.25
2023-01-22T17:14:31.546Z,105.28
2023-01-22T17:16:59.957Z,77.18
2023-01-22T17:19:28.247Z,113.65
2023-01-22T17:21:58.842Z,91.43
2023-01-22T17:24:27.469Z,63.88
2023-01-22T17:26:58.381Z,93.55
2023-01-22T17:29:26.839Z,98.40
2023-01-22T17:31:54.954Z,74.97
2023-01-22T17:34:23.279Z,91.85
2023-01-22T17:36:51.171Z,114.97
2023-01-22T17:39:21.044Z,121.75
2023-01-22T17:41:48.927Z,75.10
2023-01-22T17:44:18.417Z,119.88
2023-01-22T17:46:48.955Z,79.07
2023-01-22T17:49:16.868Z,126.55
2023-01-22T17:51:44.772Z,105.47
2023-01-22T17:54:13.185Z,150.85
2023-01-22T17:56:45.371Z,91.82
2023-01-22T17:59:13.894Z,88.18
2023-01-22T18:01:44.979Z,106.05
2023-01-22T18:04:14.815Z,98.03
2023-01-22T18:06:44.723Z,80.22
2023-01-22T18:09:13.694Z,80.60
2023-01-22T18:11:43.277Z,113.18
2023-01-22T18:14:17.313Z,77.35
2023-01-22T18:16:46.517Z,77.57
2023-01-22T18:19:14.985Z,117.82
2023-01-22T18:21:42.928Z,80.90
2023-01-22T18:24:13.402Z,88.40
2023-01-22T18:26:41.585Z,101.32
2023-01-22T18:29:11.433Z,96.88
2023-01-22T18:31:40.100Z,86.15
2023-01-22T18:34:14.303Z,114.40
2023-01-22T18:36:44.006Z,73.95
2023-01-22T18:39:16.673Z,70.50
2023-01-22T18:41:46.905Z,80.45
2023-01-22T18:44:17.314Z,85.57
2023-01-22T18:46:48.079Z,88.47
2023-01-22T18:49:19.716Z,116.65
2023-01-22T18:51:48.034Z,117.88
2023-01-22T18:54:17.320Z,108.45
2023-01-22T18:56:45.355Z,87.80
2023-01-22T18:59:13.324Z,88.60
2023-01-22T19:01:42.744Z,107.03
2023-01-22T19:04:17.797Z,83.78
2023-01-22T19:06:51.777Z,102.38
2023-01-22T19:09:20.860Z,73.25
2023-01-22T19:11:52.159Z,121.00
2023-01-22T19:14:21.794Z,110.38
2023-01-22T19:16:53.197Z,77.22
2023-01-22T19:19:22.749Z,71.47
2023-01-22T19:21:56.126Z,74.03
2023-01-22T19:24:28.132Z,60.40
2023-01-22T19:26:56.932Z,71.20
2023-01-22T19:29:27.301Z,62.38
2023-01-22T19:31:56.970Z,40.63
2023-01-22T19:34:27.299Z,31.48
2023-01-22T19:37:01.122Z,56.45
2023-01-22T19:39:29.921Z,54.30
2023-01-22T19:42:01.660Z,26.10
2023-01-22T19:44:30.040Z,27.73
2023-01-22T19:46:57.981Z,30.50
2023-01-22T19:49:25.918Z,21.98
2023-01-22T19:51:53.795Z,22.60
2023-01-22T19:54:24.560Z,22.05
2023-01-22T19:56:52.982Z,19.50
2023-01-22T19:59:24.160Z,25.13
2023-01-22T20:01:53.442Z,25.92
2023-01-22T20:04:25.444Z,16.38
2023-01-22T20:06:58.612Z,18.65
2023-01-22T20:09:28.562Z,18.30
2023-01-22T20:11:58.636Z,21.83
2023-01-22T20:14:30.955Z,18.23
2023-01-22T20:17:00.128Z,17.02
2023-01-22T20:19:29.134Z,18.80
2023-01-22T20:21:57.496Z,16.15
2023-01-22T20:24:28.087Z,19.35
2023-01-22T20:26:58.549Z,16.55
2023-01-22T20:29:26.834Z,15.90
2023-01-22T20:31:56.745Z,17.88
2023-01-22T20:34:24.754Z,20.02
2023-01-22T20:36:53.091Z,17.83
2023-01-22T20:39:21.035Z,15.93
2023-01-22T20:41:50.263Z,18.25
2023-01-22T20:44:18.715Z,18.67
2023-01-22T20:46:48.664Z,15.65
2023-01-22T20:49:16.881Z,15.55
2023-01-22T20:51:44.940Z,18.10
2023-01-22T20:54:13.825Z,18.20
2023-01-22T20:56:42.495Z,18.13
2023-01-22T20:59:17.221Z,18.38
2023-01-22T21:01:45.949Z,17.05
2023-01-22T21:04:15.281Z,17.73
2023-01-22T21:06:43.744Z,20.40
2023-01-22T21:09:12.824Z,19.83
2023-01-22T21:11:43.181Z,23.20
2023-01-22T21:14:17.761Z,20.17
2023-01-22T21:16:46.428Z,20.05
2023-01-22T21:19:18.537Z,20.10
2023-01-22T21:21:47.029Z,17.55
2023-01-22T21:24:14.990Z,21.52
2023-01-22T21:26:44.543Z,19.88
2023-01-22T21:29:17.122Z,23.33
2023-01-22T21:31:48.836Z,19.55
2023-01-22T21:34:18.669Z,24.73
2023-01-22T21:36:49.665Z,20.80
2023-01-22T21:39:21.434Z,17.75
2023-01-22T21:41:49.633Z,23.52
2023-01-22T21:44:46.963Z,25.20
2023-01-22T21:47:15.119Z,22.95
2023-01-22T21:49:43.635Z,20.55
2023-01-22T21:52:11.535Z,26.17
2023-01-22T21:54:42.067Z,23.10
2023-01-22T21:57:14.316Z,28.25
2023-01-22T21:59:45.571Z,24.05
2023-01-22T22:02:18.663Z,27.17
2023-01-22T22:04:47.279Z,26.85
2023-01-22T22:07:15.317Z,42.15
2023-01-22T22:09:44.185Z,32.30
2023-01-22T22:12:12.608Z,41.95
2023-01-22T22:14:40.488Z,45.72
2023-01-22T22:17:09.748Z,37.28
2023-01-22T22:19:37.780Z,51.17
2023-01-22T22:22:05.642Z,36.60
2023-01-22T22:24:33.894Z,50.88
2023-01-22T22:27:02.260Z,41.75
2023-01-22T22:29:30.130Z,75.50
2023-01-22T22:31:58.345Z,59.17
2023-01-22T22:34:27.621Z,44.63
2023-01-22T22:36:55.686Z,36.08
2023-01-22T22:39:23.580Z,63.25
2023-01-22T22:41:51.451Z,52.42
2023-01-22T22:44:19.342Z,61.13
2023-01-22T22:46:47.239Z,59.22
2023-01-22T22:49:15.508Z,55.78
2023-01-22T22:51:45.768Z,59.60
2023-01-22T22:54:16.683Z,63.42
2023-01-22T22:56:45.551Z,69.93
2023-01-22T22:59:14.846Z,69.82
2023-01-22T23:01:43.001Z,49.03
2023-01-22T23:04:13.748Z,66.30
2023-01-22T23:06:46.174Z,68.13
2023-01-22T23:09:17.651Z,63.63
2023-01-22T23:11:46.410Z,87.13
2023-01-22T23:14:14.452Z,52.53
2023-01-22T23:16:44.341Z,79.22
2023-01-22T23:19:17.378Z,69.30
2023-01-22T23:21:49.449Z,79.97
2023-01-22T23:24:17.953Z,107.10
2023-01-22T23:26:47.052Z,108.13
2023-01-22T23:29:19.294Z,98.55
2023-01-22T23:31:47.580Z,110.20
2023-01-22T23:34:19.505Z,89.65
2023-01-22T23:36:50.206Z,71.30
2023-01-22T23:39:21.967Z,91.25
2023-01-22T23:41:50.454Z,99.10
2023-01-22T23:44:18.470Z,68.85
2023-01-22T23:46:46.353Z,89.28
2023-01-22T23:49:14.291Z,77.60
2023-01-22T23:51:44.259Z,74.97
2023-01-22T23:54:13.696Z,74.60
2023-01-22T23:56:41.654Z,104.20
2023-01-22T23:59:11.550Z,64.43
